San Joaquin, Bolivia
Current Conditions -  °F | °C
As of 12:00 PM on Tuesday 21 Oct 2014 (Local Time) from SLMG Reporting Station
Broken Clouds Broken Clouds  
Wind Chill: 90°   Ceiling: 20000
Heat Index: 98°   Visibility: 5mi
Dew Point: 73°   Wind: 5mph
Humidity: 59%   Direction: 140°SE
Pressure: 29.91"   Gusts: NA
Location:  13.07°S, 64.82°W
Report Text: SLMG 211600Z 14004KT 8000 FEW017 BKN200 32/23 Q1013
Loading
Personal Weather Stations






























Interactive Weather Map
Tropical Storm Tracking
New forecast layout! Learn more

10-Day Weather Forecast

Advertisements
Track Severe Weather on mobile